sensor_id;sensor_type;location;lat;lon;timestamp;P1;durP1;ratioP1;P2;durP2;ratioP2
22814;SDS011;11574;51.058;13.712;2022-09-03T00:04:55;5.27;;;1.80;;
22814;SDS011;11574;51.058;13.712;2022-09-03T00:10:01;3.30;;;1.60;;
22814;SDS011;11574;51.058;13.712;2022-09-03T00:15:07;3.33;;;1.73;;
22814;SDS011;11574;51.058;13.712;2022-09-03T00:20:11;2.23;;;1.50;;
22814;SDS011;11574;51.058;13.712;2022-09-03T00:25:16;4.30;;;1.90;;
22814;SDS011;11574;51.058;13.712;2022-09-03T00:30:21;4.13;;;1.77;;
22814;SDS011;11574;51.058;13.712;2022-09-03T00:35:28;2.90;;;1.60;;
22814;SDS011;11574;51.058;13.712;2022-09-03T00:40:40;2.63;;;1.30;;
22814;SDS011;11574;51.058;13.712;2022-09-03T00:45:46;9.77;;;1.87;;
22814;SDS011;11574;51.058;13.712;2022-09-03T00:50:54;3.43;;;1.73;;
22814;SDS011;11574;51.058;13.712;2022-09-03T00:56:09;3.90;;;2.30;;
22814;SDS011;11574;51.058;13.712;2022-09-03T01:01:17;2.67;;;1.70;;
22814;SDS011;11574;51.058;13.712;2022-09-03T01:06:23;7.37;;;4.00;;
22814;SDS011;11574;51.058;13.712;2022-09-03T01:11:31;3.57;;;2.10;;
22814;SDS011;11574;51.058;13.712;2022-09-03T01:16:42;3.63;;;2.10;;
22814;SDS011;11574;51.058;13.712;2022-09-03T01:21:53;6.33;;;2.03;;
22814;SDS011;11574;51.058;13.712;2022-09-03T01:32:18;5.20;;;2.10;;
22814;SDS011;11574;51.058;13.712;2022-09-03T01:37:26;5.73;;;2.93;;
22814;SDS011;11574;51.058;13.712;2022-09-03T01:42:36;5.87;;;2.67;;
22814;SDS011;11574;51.058;13.712;2022-09-03T01:47:46;4.50;;;2.40;;
22814;SDS011;11574;51.058;13.712;2022-09-03T01:52:51;4.93;;;2.20;;
22814;SDS011;11574;51.058;13.712;2022-09-03T01:57:56;3.83;;;2.23;;
22814;SDS011;11574;51.058;13.712;2022-09-03T02:03:02;4.03;;;1.90;;
22814;SDS011;11574;51.058;13.712;2022-09-03T02:08:06;3.00;;;1.70;;
22814;SDS011;11574;51.058;13.712;2022-09-03T02:13:11;2.77;;;1.50;;
22814;SDS011;11574;51.058;13.712;2022-09-03T02:18:25;3.27;;;2.00;;
22814;SDS011;11574;51.058;13.712;2022-09-03T02:23:27;4.27;;;2.07;;
22814;SDS011;11574;51.058;13.712;2022-09-03T02:28:30;5.30;;;2.23;;
22814;SDS011;11574;51.058;13.712;2022-09-03T02:33:36;4.70;;;2.20;;
22814;SDS011;11574;51.058;13.712;2022-09-03T02:38:40;3.73;;;2.03;;
22814;SDS011;11574;51.058;13.712;2022-09-03T02:43:46;3.47;;;2.07;;
22814;SDS011;11574;51.058;13.712;2022-09-03T02:48:51;3.57;;;1.80;;
22814;SDS011;11574;51.058;13.712;2022-09-03T02:53:54;2.67;;;2.03;;
22814;SDS011;11574;51.058;13.712;2022-09-03T02:58:56;3.93;;;2.20;;
22814;SDS011;11574;51.058;13.712;2022-09-03T03:04:00;3.63;;;2.03;;
22814;SDS011;11574;51.058;13.712;2022-09-03T03:09:02;7.07;;;2.50;;
22814;SDS011;11574;51.058;13.712;2022-09-03T03:14:06;3.70;;;2.10;;
22814;SDS011;11574;51.058;13.712;2022-09-03T03:19:09;4.07;;;2.03;;
22814;SDS011;11574;51.058;13.712;2022-09-03T03:24:12;4.00;;;2.00;;
22814;SDS011;11574;51.058;13.712;2022-09-03T03:29:14;6.37;;;2.23;;
22814;SDS011;11574;51.058;13.712;2022-09-03T03:34:19;2.97;;;1.77;;
22814;SDS011;11574;51.058;13.712;2022-09-03T03:39:21;3.77;;;2.00;;
22814;SDS011;11574;51.058;13.712;2022-09-03T03:44:23;5.97;;;1.90;;
22814;SDS011;11574;51.058;13.712;2022-09-03T03:49:30;4.73;;;1.80;;
22814;SDS011;11574;51.058;13.712;2022-09-03T03:54:33;3.53;;;1.80;;
22814;SDS011;11574;51.058;13.712;2022-09-03T03:59:35;4.97;;;2.03;;
22814;SDS011;11574;51.058;13.712;2022-09-03T04:04:39;3.80;;;1.90;;
22814;SDS011;11574;51.058;13.712;2022-09-03T04:09:41;3.53;;;2.10;;
22814;SDS011;11574;51.058;13.712;2022-09-03T04:14:44;3.50;;;2.20;;
22814;SDS011;11574;51.058;13.712;2022-09-03T04:19:47;3.50;;;1.93;;
22814;SDS011;11574;51.058;13.712;2022-09-03T04:24:50;4.77;;;2.30;;
22814;SDS011;11574;51.058;13.712;2022-09-03T04:29:53;6.13;;;2.30;;
22814;SDS011;11574;51.058;13.712;2022-09-03T04:34:57;4.27;;;2.20;;
22814;SDS011;11574;51.058;13.712;2022-09-03T04:39:59;3.53;;;1.90;;
22814;SDS011;11574;51.058;13.712;2022-09-03T04:45:01;4.63;;;1.73;;
22814;SDS011;11574;51.058;13.712;2022-09-03T04:50:19;3.27;;;2.17;;
22814;SDS011;11574;51.058;13.712;2022-09-03T04:55:22;4.33;;;1.67;;
22814;SDS011;11574;51.058;13.712;2022-09-03T05:00:27;4.17;;;1.90;;
22814;SDS011;11574;51.058;13.712;2022-09-03T05:05:31;2.33;;;1.50;;
22814;SDS011;11574;51.058;13.712;2022-09-03T05:10:36;3.50;;;1.60;;
22814;SDS011;11574;51.058;13.712;2022-09-03T05:15:38;4.23;;;1.80;;
22814;SDS011;11574;51.058;13.712;2022-09-03T05:20:45;4.13;;;1.50;;
22814;SDS011;11574;51.058;13.712;2022-09-03T05:25:53;4.67;;;1.80;;
22814;SDS011;11574;51.058;13.712;2022-09-03T05:30:57;2.90;;;1.80;;
22814;SDS011;11574;51.058;13.712;2022-09-03T05:36:02;3.50;;;1.67;;
22814;SDS011;11574;51.058;13.712;2022-09-03T05:41:06;2.33;;;1.33;;
22814;SDS011;11574;51.058;13.712;2022-09-03T05:46:17;7.20;;;1.53;;
22814;SDS011;11574;51.058;13.712;2022-09-03T05:51:21;2.13;;;1.37;;
22814;SDS011;11574;51.058;13.712;2022-09-03T05:56:24;1.50;;;1.13;;
22814;SDS011;11574;51.058;13.712;2022-09-03T06:01:30;3.13;;;1.33;;
22814;SDS011;11574;51.058;13.712;2022-09-03T06:06:37;1.92;;;1.08;;
22814;SDS011;11574;51.058;13.712;2022-09-03T06:11:39;3.25;;;1.77;;
22814;SDS011;11574;51.058;13.712;2022-09-03T06:16:43;5.85;;;1.45;;
22814;SDS011;11574;51.058;13.712;2022-09-03T06:21:49;2.53;;;1.40;;
22814;SDS011;11574;51.058;13.712;2022-09-03T06:26:51;4.30;;;1.45;;
22814;SDS011;11574;51.058;13.712;2022-09-03T06:31:53;3.78;;;1.52;;
22814;SDS011;11574;51.058;13.712;2022-09-03T06:36:58;2.22;;;1.50;;
22814;SDS011;11574;51.058;13.712;2022-09-03T06:42:03;2.35;;;1.52;;
22814;SDS011;11574;51.058;13.712;2022-09-03T06:47:09;2.30;;;1.50;;
22814;SDS011;11574;51.058;13.712;2022-09-03T06:52:13;2.45;;;1.35;;
22814;SDS011;11574;51.058;13.712;2022-09-03T06:57:15;2.60;;;1.50;;
22814;SDS011;11574;51.058;13.712;2022-09-03T07:02:17;2.17;;;1.25;;
22814;SDS011;11574;51.058;13.712;2022-09-03T07:07:23;2.00;;;1.30;;
22814;SDS011;11574;51.058;13.712;2022-09-03T07:12:25;13.30;;;3.90;;
22814;SDS011;11574;51.058;13.712;2022-09-03T07:17:27;15.52;;;4.20;;
22814;SDS011;11574;51.058;13.712;2022-09-03T07:22:31;11.25;;;3.17;;
22814;SDS011;11574;51.058;13.712;2022-09-03T07:27:38;6.85;;;2.58;;
22814;SDS011;11574;51.058;13.712;2022-09-03T07:32:41;4.35;;;1.15;;
22814;SDS011;11574;51.058;13.712;2022-09-03T07:37:44;2.70;;;1.20;;
22814;SDS011;11574;51.058;13.712;2022-09-03T07:42:47;4.93;;;2.15;;
22814;SDS011;11574;51.058;13.712;2022-09-03T07:47:51;3.65;;;1.23;;
22814;SDS011;11574;51.058;13.712;2022-09-03T07:52:56;1.90;;;1.30;;
22814;SDS011;11574;51.058;13.712;2022-09-03T07:57:58;2.42;;;1.20;;
22814;SDS011;11574;51.058;13.712;2022-09-03T08:03:00;1.92;;;1.45;;
22814;SDS011;11574;51.058;13.712;2022-09-03T08:08:07;2.28;;;1.30;;
22814;SDS011;11574;51.058;13.712;2022-09-03T08:13:09;6.47;;;2.50;;
22814;SDS011;11574;51.058;13.712;2022-09-03T08:18:11;6.70;;;2.05;;
22814;SDS011;11574;51.058;13.712;2022-09-03T08:23:15;3.50;;;1.45;;
22814;SDS011;11574;51.058;13.712;2022-09-03T08:28:18;2.53;;;1.40;;
22814;SDS011;11574;51.058;13.712;2022-09-03T08:33:20;4.28;;;1.58;;
22814;SDS011;11574;51.058;13.712;2022-09-03T08:38:38;1.67;;;1.33;;
22814;SDS011;11574;51.058;13.712;2022-09-03T08:43:49;5.95;;;1.63;;
22814;SDS011;11574;51.058;13.712;2022-09-03T08:48:55;2.17;;;1.55;;
22814;SDS011;11574;51.058;13.712;2022-09-03T08:53:59;6.85;;;1.48;;
22814;SDS011;11574;51.058;13.712;2022-09-03T08:59:02;3.22;;;1.25;;
22814;SDS011;11574;51.058;13.712;2022-09-03T09:04:07;5.43;;;1.40;;
22814;SDS011;11574;51.058;13.712;2022-09-03T09:09:19;2.65;;;1.33;;
22814;SDS011;11574;51.058;13.712;2022-09-03T09:14:24;4.07;;;1.45;;
22814;SDS011;11574;51.058;13.712;2022-09-03T09:19:31;3.00;;;2.05;;
22814;SDS011;11574;51.058;13.712;2022-09-03T09:24:39;2.35;;;1.63;;
22814;SDS011;11574;51.058;13.712;2022-09-03T09:29:45;2.42;;;1.52;;
22814;SDS011;11574;51.058;13.712;2022-09-03T09:34:47;3.05;;;1.48;;
22814;SDS011;11574;51.058;13.712;2022-09-03T09:39:54;5.13;;;1.35;;
22814;SDS011;11574;51.058;13.712;2022-09-03T09:45:07;2.95;;;1.40;;
22814;SDS011;11574;51.058;13.712;2022-09-03T09:50:15;4.20;;;1.40;;
22814;SDS011;11574;51.058;13.712;2022-09-03T09:55:19;4.80;;;1.45;;
22814;SDS011;11574;51.058;13.712;2022-09-03T10:00:22;3.58;;;1.42;;
22814;SDS011;11574;51.058;13.712;2022-09-03T10:05:26;3.80;;;1.50;;
22814;SDS011;11574;51.058;13.712;2022-09-03T10:10:32;1.50;;;1.30;;
22814;SDS011;11574;51.058;13.712;2022-09-03T10:15:38;4.25;;;1.40;;
22814;SDS011;11574;51.058;13.712;2022-09-03T10:20:43;4.40;;;1.55;;
22814;SDS011;11574;51.058;13.712;2022-09-03T10:25:51;2.80;;;1.40;;
22814;SDS011;11574;51.058;13.712;2022-09-03T10:36:20;3.72;;;1.40;;
22814;SDS011;11574;51.058;13.712;2022-09-03T10:41:31;1.60;;;1.30;;
22814;SDS011;11574;51.058;13.712;2022-09-03T10:46:39;2.55;;;1.50;;
22814;SDS011;11574;51.058;13.712;2022-09-03T10:51:47;2.05;;;1.30;;
22814;SDS011;11574;51.058;13.712;2022-09-03T10:56:56;1.90;;;1.23;;
22814;SDS011;11574;51.058;13.712;2022-09-03T11:02:07;6.83;;;1.20;;
22814;SDS011;11574;51.058;13.712;2022-09-03T11:07:19;2.43;;;1.40;;
22814;SDS011;11574;51.058;13.712;2022-09-03T11:12:26;4.75;;;1.15;;
22814;SDS011;11574;51.058;13.712;2022-09-03T11:17:32;2.53;;;1.30;;
22814;SDS011;11574;51.058;13.712;2022-09-03T11:22:36;4.40;;;1.40;;
22814;SDS011;11574;51.058;13.712;2022-09-03T11:27:47;2.63;;;1.30;;
22814;SDS011;11574;51.058;13.712;2022-09-03T11:32:51;1.70;;;1.13;;
22814;SDS011;11574;51.058;13.712;2022-09-03T11:37:57;2.35;;;1.10;;
22814;SDS011;11574;51.058;13.712;2022-09-03T11:43:09;3.08;;;1.20;;
22814;SDS011;11574;51.058;13.712;2022-09-03T11:48:17;5.32;;;1.20;;
22814;SDS011;11574;51.058;13.712;2022-09-03T11:53:24;4.78;;;1.40;;
22814;SDS011;11574;51.058;13.712;2022-09-03T11:58:31;2.33;;;1.17;;
22814;SDS011;11574;51.058;13.712;2022-09-03T12:03:36;1.88;;;1.05;;
22814;SDS011;11574;51.058;13.712;2022-09-03T12:09:01;3.38;;;1.20;;
22814;SDS011;11574;51.058;13.712;2022-09-03T12:14:11;3.05;;;1.40;;
22814;SDS011;11574;51.058;13.712;2022-09-03T12:19:17;1.92;;;1.35;;
22814;SDS011;11574;51.058;13.712;2022-09-03T12:24:25;2.00;;;1.27;;
22814;SDS011;11574;51.058;13.712;2022-09-03T12:29:35;2.15;;;1.08;;
22814;SDS011;11574;51.058;13.712;2022-09-03T12:34:39;2.73;;;1.57;;
22814;SDS011;11574;51.058;13.712;2022-09-03T12:39:48;2.37;;;1.47;;
22814;SDS011;11574;51.058;13.712;2022-09-03T12:44:52;2.67;;;1.20;;
22814;SDS011;11574;51.058;13.712;2022-09-03T12:50:04;5.57;;;1.40;;
22814;SDS011;11574;51.058;13.712;2022-09-03T12:55:07;4.32;;;1.35;;
22814;SDS011;11574;51.058;13.712;2022-09-03T13:00:20;2.65;;;1.20;;
22814;SDS011;11574;51.058;13.712;2022-09-03T13:05:35;2.80;;;1.38;;
22814;SDS011;11574;51.058;13.712;2022-09-03T13:10:41;3.10;;;1.20;;
22814;SDS011;11574;51.058;13.712;2022-09-03T13:15:55;3.07;;;1.33;;
22814;SDS011;11574;51.058;13.712;2022-09-03T13:21:05;4.15;;;1.23;;
22814;SDS011;11574;51.058;13.712;2022-09-03T13:26:17;6.88;;;1.80;;
22814;SDS011;11574;51.058;13.712;2022-09-03T13:31:26;2.47;;;1.30;;
22814;SDS011;11574;51.058;13.712;2022-09-03T13:36:33;5.35;;;1.33;;
22814;SDS011;11574;51.058;13.712;2022-09-03T13:41:36;2.72;;;1.20;;
22814;SDS011;11574;51.058;13.712;2022-09-03T13:46:42;2.03;;;1.40;;
22814;SDS011;11574;51.058;13.712;2022-09-03T13:51:46;5.70;;;1.40;;
22814;SDS011;11574;51.058;13.712;2022-09-03T13:56:53;2.90;;;1.40;;
22814;SDS011;11574;51.058;13.712;2022-09-03T14:02:01;6.13;;;1.60;;
22814;SDS011;11574;51.058;13.712;2022-09-03T14:07:07;2.53;;;1.30;;
22814;SDS011;11574;51.058;13.712;2022-09-03T14:12:12;4.10;;;1.20;;
22814;SDS011;11574;51.058;13.712;2022-09-03T14:17:18;5.53;;;1.40;;
22814;SDS011;11574;51.058;13.712;2022-09-03T14:22:28;3.45;;;1.27;;
22814;SDS011;11574;51.058;13.712;2022-09-03T14:27:32;2.65;;;1.10;;
22814;SDS011;11574;51.058;13.712;2022-09-03T14:32:41;2.70;;;1.10;;
22814;SDS011;11574;51.058;13.712;2022-09-03T14:43:15;3.35;;;1.50;;
22814;SDS011;11574;51.058;13.712;2022-09-03T14:48:29;2.55;;;1.35;;
22814;SDS011;11574;51.058;13.712;2022-09-03T14:59:02;3.95;;;1.50;;
22814;SDS011;11574;51.058;13.712;2022-09-03T15:09:44;3.95;;;1.58;;
22814;SDS011;11574;51.058;13.712;2022-09-03T15:14:48;5.50;;;2.05;;
22814;SDS011;11574;51.058;13.712;2022-09-03T15:19:55;3.70;;;1.90;;
22814;SDS011;11574;51.058;13.712;2022-09-03T15:25:04;10.30;;;6.53;;
22814;SDS011;11574;51.058;13.712;2022-09-03T15:30:09;2.57;;;1.67;;
22814;SDS011;11574;51.058;13.712;2022-09-03T15:35:15;2.67;;;1.43;;
22814;SDS011;11574;51.058;13.712;2022-09-03T15:40:24;4.10;;;1.53;;
22814;SDS011;11574;51.058;13.712;2022-09-03T15:45:34;2.23;;;1.10;;
22814;SDS011;11574;51.058;13.712;2022-09-03T15:50:38;3.37;;;1.20;;
22814;SDS011;11574;51.058;13.712;2022-09-03T15:55:52;3.30;;;1.70;;
22814;SDS011;11574;51.058;13.712;2022-09-03T16:01:05;2.53;;;1.10;;
22814;SDS011;11574;51.058;13.712;2022-09-03T16:06:17;1.73;;;1.30;;
22814;SDS011;11574;51.058;13.712;2022-09-03T16:11:27;3.83;;;1.20;;
22814;SDS011;11574;51.058;13.712;2022-09-03T16:16:41;2.00;;;1.20;;
22814;SDS011;11574;51.058;13.712;2022-09-03T16:21:48;1.75;;;0.98;;
22814;SDS011;11574;51.058;13.712;2022-09-03T16:26:58;1.58;;;1.10;;
22814;SDS011;11574;51.058;13.712;2022-09-03T16:32:13;6.17;;;1.50;;
22814;SDS011;11574;51.058;13.712;2022-09-03T16:37:27;2.13;;;1.27;;
22814;SDS011;11574;51.058;13.712;2022-09-03T16:42:39;4.03;;;1.23;;
22814;SDS011;11574;51.058;13.712;2022-09-03T16:47:47;5.53;;;1.33;;
22814;SDS011;11574;51.058;13.712;2022-09-03T16:52:58;3.70;;;1.10;;
22814;SDS011;11574;51.058;13.712;2022-09-03T16:58:08;3.87;;;1.97;;
22814;SDS011;11574;51.058;13.712;2022-09-03T17:08:50;2.87;;;1.43;;
22814;SDS011;11574;51.058;13.712;2022-09-03T17:14:02;4.57;;;1.53;;
22814;SDS011;11574;51.058;13.712;2022-09-03T17:19:08;3.43;;;1.50;;
22814;SDS011;11574;51.058;13.712;2022-09-03T17:24:22;5.43;;;1.80;;
22814;SDS011;11574;51.058;13.712;2022-09-03T17:29:36;7.67;;;1.73;;
22814;SDS011;11574;51.058;13.712;2022-09-03T17:34:52;2.93;;;1.80;;
22814;SDS011;11574;51.058;13.712;2022-09-03T17:40:01;2.23;;;1.70;;
22814;SDS011;11574;51.058;13.712;2022-09-03T17:45:10;4.30;;;1.60;;
22814;SDS011;11574;51.058;13.712;2022-09-03T17:50:16;3.30;;;1.87;;
22814;SDS011;11574;51.058;13.712;2022-09-03T17:55:20;5.23;;;2.00;;
22814;SDS011;11574;51.058;13.712;2022-09-03T18:00:27;5.43;;;2.20;;
22814;SDS011;11574;51.058;13.712;2022-09-03T18:05:31;6.73;;;2.33;;
22814;SDS011;11574;51.058;13.712;2022-09-03T18:10:39;5.63;;;2.70;;
22814;SDS011;11574;51.058;13.712;2022-09-03T18:15:48;3.80;;;2.20;;
22814;SDS011;11574;51.058;13.712;2022-09-03T18:20:54;5.73;;;2.20;;
22814;SDS011;11574;51.058;13.712;2022-09-03T18:26:15;3.77;;;2.30;;
22814;SDS011;11574;51.058;13.712;2022-09-03T18:31:40;4.33;;;2.40;;
22814;SDS011;11574;51.058;13.712;2022-09-03T18:37:01;5.13;;;2.78;;
22814;SDS011;11574;51.058;13.712;2022-09-03T18:42:22;7.63;;;3.27;;
22814;SDS011;11574;51.058;13.712;2022-09-03T18:47:50;8.07;;;2.47;;
22814;SDS011;11574;51.058;13.712;2022-09-03T18:53:22;7.27;;;2.90;;
22814;SDS011;11574;51.058;13.712;2022-09-03T18:58:52;6.27;;;2.40;;
22814;SDS011;11574;51.058;13.712;2022-09-03T19:04:27;8.33;;;3.10;;
22814;SDS011;11574;51.058;13.712;2022-09-03T19:09:52;5.40;;;3.03;;
22814;SDS011;11574;51.058;13.712;2022-09-03T19:15:13;5.40;;;3.20;;
22814;SDS011;11574;51.058;13.712;2022-09-03T19:20:39;5.10;;;3.27;;
22814;SDS011;11574;51.058;13.712;2022-09-03T19:26:10;6.03;;;3.37;;
22814;SDS011;11574;51.058;13.712;2022-09-03T19:31:36;8.40;;;3.63;;
22814;SDS011;11574;51.058;13.712;2022-09-03T19:36:59;7.97;;;3.60;;
22814;SDS011;11574;51.058;13.712;2022-09-03T19:42:23;6.47;;;3.10;;
22814;SDS011;11574;51.058;13.712;2022-09-03T19:47:49;8.47;;;3.33;;
22814;SDS011;11574;51.058;13.712;2022-09-03T19:53:14;6.80;;;3.40;;
22814;SDS011;11574;51.058;13.712;2022-09-03T19:58:41;6.17;;;3.00;;
22814;SDS011;11574;51.058;13.712;2022-09-03T20:04:03;6.63;;;3.40;;
22814;SDS011;11574;51.058;13.712;2022-09-03T20:09:28;9.10;;;3.20;;
22814;SDS011;11574;51.058;13.712;2022-09-03T20:14:49;7.17;;;3.00;;
22814;SDS011;11574;51.058;13.712;2022-09-03T20:20:03;5.80;;;3.20;;
22814;SDS011;11574;51.058;13.712;2022-09-03T20:25:16;7.40;;;3.50;;
22814;SDS011;11574;51.058;13.712;2022-09-03T20:30:28;7.00;;;3.03;;
22814;SDS011;11574;51.058;13.712;2022-09-03T20:35:44;5.37;;;3.40;;
22814;SDS011;11574;51.058;13.712;2022-09-03T20:40:52;8.70;;;3.77;;
22814;SDS011;11574;51.058;13.712;2022-09-03T20:45:58;8.10;;;3.70;;
22814;SDS011;11574;51.058;13.712;2022-09-03T20:51:05;15.47;;;4.27;;
22814;SDS011;11574;51.058;13.712;2022-09-03T20:56:13;5.57;;;3.83;;
22814;SDS011;11574;51.058;13.712;2022-09-03T21:01:19;8.23;;;4.00;;
22814;SDS011;11574;51.058;13.712;2022-09-03T21:06:26;7.97;;;4.70;;
22814;SDS011;11574;51.058;13.712;2022-09-03T21:11:34;9.07;;;5.70;;
22814;SDS011;11574;51.058;13.712;2022-09-03T21:16:45;7.63;;;5.07;;
22814;SDS011;11574;51.058;13.712;2022-09-03T21:21:57;9.97;;;4.80;;
22814;SDS011;11574;51.058;13.712;2022-09-03T21:27:03;8.47;;;5.20;;
22814;SDS011;11574;51.058;13.712;2022-09-03T21:32:15;9.27;;;4.77;;
22814;SDS011;11574;51.058;13.712;2022-09-03T21:37:26;9.00;;;4.50;;
22814;SDS011;11574;51.058;13.712;2022-09-03T21:42:37;11.00;;;5.00;;
22814;SDS011;11574;51.058;13.712;2022-09-03T21:47:42;6.83;;;4.60;;
22814;SDS011;11574;51.058;13.712;2022-09-03T21:52:51;10.90;;;6.07;;
22814;SDS011;11574;51.058;13.712;2022-09-03T22:03:25;7.03;;;4.73;;
22814;SDS011;11574;51.058;13.712;2022-09-03T22:08:28;6.87;;;4.20;;
22814;SDS011;11574;51.058;13.712;2022-09-03T22:13:34;9.60;;;4.57;;
22814;SDS011;11574;51.058;13.712;2022-09-03T22:24:13;7.57;;;4.47;;
22814;SDS011;11574;51.058;13.712;2022-09-03T22:29:31;9.13;;;4.80;;
22814;SDS011;11574;51.058;13.712;2022-09-03T22:34:39;9.10;;;5.13;;
22814;SDS011;11574;51.058;13.712;2022-09-03T22:39:46;7.43;;;4.83;;
22814;SDS011;11574;51.058;13.712;2022-09-03T22:45:05;6.93;;;4.90;;
22814;SDS011;11574;51.058;13.712;2022-09-03T22:50:11;7.67;;;4.77;;
22814;SDS011;11574;51.058;13.712;2022-09-03T22:55:18;6.10;;;4.18;;
22814;SDS011;11574;51.058;13.712;2022-09-03T23:00:24;10.33;;;4.77;;
22814;SDS011;11574;51.058;13.712;2022-09-03T23:05:33;8.57;;;4.30;;
22814;SDS011;11574;51.058;13.712;2022-09-03T23:10:43;5.60;;;4.30;;
22814;SDS011;11574;51.058;13.712;2022-09-03T23:15:56;8.00;;;4.07;;
22814;SDS011;11574;51.058;13.712;2022-09-03T23:21:04;6.73;;;4.33;;
22814;SDS011;11574;51.058;13.712;2022-09-03T23:26:10;9.67;;;4.50;;
22814;SDS011;11574;51.058;13.712;2022-09-03T23:31:16;8.43;;;4.90;;
22814;SDS011;11574;51.058;13.712;2022-09-03T23:36:22;10.43;;;5.70;;
22814;SDS011;11574;51.058;13.712;2022-09-03T23:41:31;8.87;;;5.33;;
22814;SDS011;11574;51.058;13.712;2022-09-03T23:46:39;9.30;;;5.10;;
22814;SDS011;11574;51.058;13.712;2022-09-03T23:51:52;6.70;;;5.30;;
22814;SDS011;11574;51.058;13.712;2022-09-03T23:57:02;9.43;;;5.37;;
